sensor_id;sensor_type;location;lat;lon;timestamp;P1;durP1;ratioP1;P2;durP2;ratioP2
77012;SDS011;65946;53.130;17.982;2022-12-24T00:00:06;30.40;;;12.80;;
77012;SDS011;65946;53.130;17.982;2022-12-24T00:02:33;33.30;;;14.10;;
77012;SDS011;65946;53.130;17.982;2022-12-24T00:05:00;31.50;;;13.90;;
77012;SDS011;65946;53.130;17.982;2022-12-24T00:07:28;33.80;;;14.00;;
77012;SDS011;65946;53.130;17.982;2022-12-24T00:09:55;34.20;;;15.70;;
77012;SDS011;65946;53.130;17.982;2022-12-24T00:12:22;36.80;;;16.30;;
77012;SDS011;65946;53.130;17.982;2022-12-24T00:14:49;33.60;;;15.30;;
77012;SDS011;65946;53.130;17.982;2022-12-24T00:17:15;35.70;;;15.00;;
77012;SDS011;65946;53.130;17.982;2022-12-24T00:19:42;35.70;;;16.20;;
77012;SDS011;65946;53.130;17.982;2022-12-24T00:22:09;29.80;;;14.40;;
77012;SDS011;65946;53.130;17.982;2022-12-24T00:24:35;32.50;;;14.50;;
77012;SDS011;65946;53.130;17.982;2022-12-24T00:27:02;35.40;;;15.40;;
77012;SDS011;65946;53.130;17.982;2022-12-24T00:29:31;29.40;;;14.10;;
77012;SDS011;65946;53.130;17.982;2022-12-24T00:31:58;31.30;;;14.70;;
77012;SDS011;65946;53.130;17.982;2022-12-24T00:34:25;34.00;;;13.70;;
77012;SDS011;65946;53.130;17.982;2022-12-24T00:36:52;28.40;;;12.60;;
77012;SDS011;65946;53.130;17.982;2022-12-24T00:41:45;35.40;;;14.90;;
77012;SDS011;65946;53.130;17.982;2022-12-24T00:44:12;33.30;;;14.80;;
77012;SDS011;65946;53.130;17.982;2022-12-24T00:49:06;30.80;;;14.30;;
77012;SDS011;65946;53.130;17.982;2022-12-24T00:51:34;32.00;;;14.80;;
77012;SDS011;65946;53.130;17.982;2022-12-24T00:54:02;35.10;;;15.60;;
77012;SDS011;65946;53.130;17.982;2022-12-24T00:56:29;40.50;;;17.50;;
77012;SDS011;65946;53.130;17.982;2022-12-24T00:58:56;41.20;;;17.20;;
77012;SDS011;65946;53.130;17.982;2022-12-24T01:01:23;40.40;;;17.30;;
77012;SDS011;65946;53.130;17.982;2022-12-24T01:03:50;36.80;;;15.90;;
77012;SDS011;65946;53.130;17.982;2022-12-24T01:06:19;44.30;;;18.50;;
77012;SDS011;65946;53.130;17.982;2022-12-24T01:08:50;47.40;;;20.00;;
77012;SDS011;65946;53.130;17.982;2022-12-24T01:11:17;47.30;;;19.90;;
77012;SDS011;65946;53.130;17.982;2022-12-24T01:13:44;45.20;;;19.30;;
77012;SDS011;65946;53.130;17.982;2022-12-24T01:16:12;45.90;;;19.40;;
77012;SDS011;65946;53.130;17.982;2022-12-24T01:18:44;44.20;;;18.40;;
77012;SDS011;65946;53.130;17.982;2022-12-24T01:21:10;37.50;;;17.50;;
77012;SDS011;65946;53.130;17.982;2022-12-24T01:23:37;37.80;;;17.10;;
77012;SDS011;65946;53.130;17.982;2022-12-24T01:28:31;31.80;;;13.90;;
77012;SDS011;65946;53.130;17.982;2022-12-24T01:30:58;31.30;;;14.00;;
77012;SDS011;65946;53.130;17.982;2022-12-24T01:33:28;24.80;;;10.70;;
77012;SDS011;65946;53.130;17.982;2022-12-24T01:35:55;29.70;;;12.70;;
77012;SDS011;65946;53.130;17.982;2022-12-24T01:38:22;25.80;;;12.20;;
77012;SDS011;65946;53.130;17.982;2022-12-24T01:40:49;28.30;;;13.20;;
77012;SDS011;65946;53.130;17.982;2022-12-24T01:43:34;31.00;;;13.70;;
77012;SDS011;65946;53.130;17.982;2022-12-24T01:48:40;26.40;;;10.90;;
77012;SDS011;65946;53.130;17.982;2022-12-24T01:51:45;28.70;;;12.90;;
77012;SDS011;65946;53.130;17.982;2022-12-24T01:54:12;26.30;;;11.50;;
77012;SDS011;65946;53.130;17.982;2022-12-24T01:56:44;29.00;;;12.30;;
77012;SDS011;65946;53.130;17.982;2022-12-24T01:59:14;20.70;;;9.40;;
77012;SDS011;65946;53.130;17.982;2022-12-24T02:01:44;20.90;;;9.40;;
77012;SDS011;65946;53.130;17.982;2022-12-24T02:04:15;20.60;;;9.50;;
77012;SDS011;65946;53.130;17.982;2022-12-24T02:07:03;19.50;;;8.90;;
77012;SDS011;65946;53.130;17.982;2022-12-24T02:09:31;23.50;;;10.20;;
77012;SDS011;65946;53.130;17.982;2022-12-24T02:11:59;22.60;;;10.00;;
77012;SDS011;65946;53.130;17.982;2022-12-24T02:14:26;20.10;;;9.10;;
77012;SDS011;65946;53.130;17.982;2022-12-24T02:17:59;22.60;;;10.70;;
77012;SDS011;65946;53.130;17.982;2022-12-24T02:20:18;20.80;;;8.90;;
77012;SDS011;65946;53.130;17.982;2022-12-24T02:34:51;18.10;;;7.90;;
77012;SDS011;65946;53.130;17.982;2022-12-24T02:37:25;20.90;;;7.90;;
77012;SDS011;65946;53.130;17.982;2022-12-24T02:40:09;16.90;;;7.10;;
77012;SDS011;65946;53.130;17.982;2022-12-24T02:42:40;17.70;;;8.40;;
77012;SDS011;65946;53.130;17.982;2022-12-24T02:45:19;18.10;;;7.80;;
77012;SDS011;65946;53.130;17.982;2022-12-24T02:47:49;13.70;;;6.70;;
77012;SDS011;65946;53.130;17.982;2022-12-24T02:50:17;16.00;;;6.40;;
77012;SDS011;65946;53.130;17.982;2022-12-24T02:52:44;13.10;;;7.00;;
77012;SDS011;65946;53.130;17.982;2022-12-24T02:58:17;16.40;;;7.60;;
77012;SDS011;65946;53.130;17.982;2022-12-24T03:01:16;16.50;;;7.90;;
77012;SDS011;65946;53.130;17.982;2022-12-24T03:04:02;11.60;;;5.30;;
77012;SDS011;65946;53.130;17.982;2022-12-24T03:09:49;13.20;;;6.00;;
77012;SDS011;65946;53.130;17.982;2022-12-24T03:12:18;16.70;;;7.00;;
77012;SDS011;65946;53.130;17.982;2022-12-24T03:14:50;12.60;;;6.40;;
77012;SDS011;65946;53.130;17.982;2022-12-24T03:17:17;13.10;;;6.20;;
77012;SDS011;65946;53.130;17.982;2022-12-24T03:19:45;16.00;;;6.60;;
77012;SDS011;65946;53.130;17.982;2022-12-24T03:22:12;13.30;;;5.80;;
77012;SDS011;65946;53.130;17.982;2022-12-24T03:24:41;11.30;;;5.90;;
77012;SDS011;65946;53.130;17.982;2022-12-24T03:27:08;12.50;;;5.40;;
77012;SDS011;65946;53.130;17.982;2022-12-24T03:29:38;10.00;;;4.60;;
77012;SDS011;65946;53.130;17.982;2022-12-24T03:32:05;12.30;;;5.20;;
77012;SDS011;65946;53.130;17.982;2022-12-24T03:34:33;10.60;;;5.10;;
77012;SDS011;65946;53.130;17.982;2022-12-24T03:39:26;15.00;;;5.70;;
77012;SDS011;65946;53.130;17.982;2022-12-24T03:41:52;11.50;;;5.40;;
77012;SDS011;65946;53.130;17.982;2022-12-24T03:44:19;9.70;;;4.40;;
77012;SDS011;65946;53.130;17.982;2022-12-24T03:46:46;10.00;;;4.20;;
77012;SDS011;65946;53.130;17.982;2022-12-24T03:49:13;12.30;;;5.50;;
77012;SDS011;65946;53.130;17.982;2022-12-24T03:51:39;11.30;;;5.40;;
77012;SDS011;65946;53.130;17.982;2022-12-24T03:56:32;10.00;;;4.80;;
77012;SDS011;65946;53.130;17.982;2022-12-24T04:01:26;12.90;;;5.80;;
77012;SDS011;65946;53.130;17.982;2022-12-24T04:03:53;8.20;;;4.10;;
77012;SDS011;65946;53.130;17.982;2022-12-24T04:06:19;11.00;;;5.20;;
77012;SDS011;65946;53.130;17.982;2022-12-24T04:08:46;10.20;;;5.00;;
77012;SDS011;65946;53.130;17.982;2022-12-24T04:13:40;10.90;;;4.60;;
77012;SDS011;65946;53.130;17.982;2022-12-24T04:16:08;8.30;;;3.70;;
77012;SDS011;65946;53.130;17.982;2022-12-24T04:18:37;6.70;;;3.10;;
77012;SDS011;65946;53.130;17.982;2022-12-24T04:21:05;8.90;;;4.10;;
77012;SDS011;65946;53.130;17.982;2022-12-24T04:23:33;8.30;;;4.20;;
77012;SDS011;65946;53.130;17.982;2022-12-24T04:26:00;9.70;;;4.90;;
77012;SDS011;65946;53.130;17.982;2022-12-24T04:28:29;12.50;;;5.10;;
77012;SDS011;65946;53.130;17.982;2022-12-24T04:30:58;8.70;;;4.40;;
77012;SDS011;65946;53.130;17.982;2022-12-24T04:33:25;6.30;;;3.10;;
77012;SDS011;65946;53.130;17.982;2022-12-24T04:35:52;8.90;;;3.80;;
77012;SDS011;65946;53.130;17.982;2022-12-24T04:38:19;8.40;;;3.60;;
77012;SDS011;65946;53.130;17.982;2022-12-24T04:40:45;8.60;;;4.20;;
77012;SDS011;65946;53.130;17.982;2022-12-24T04:45:39;9.90;;;4.70;;
77012;SDS011;65946;53.130;17.982;2022-12-24T04:48:06;9.70;;;4.10;;
77012;SDS011;65946;53.130;17.982;2022-12-24T04:50:32;16.00;;;5.40;;
77012;SDS011;65946;53.130;17.982;2022-12-24T04:52:59;9.50;;;3.70;;
77012;SDS011;65946;53.130;17.982;2022-12-24T04:55:26;8.90;;;4.40;;
77012;SDS011;65946;53.130;17.982;2022-12-24T04:57:52;12.10;;;4.50;;
77012;SDS011;65946;53.130;17.982;2022-12-24T05:02:46;9.00;;;4.20;;
77012;SDS011;65946;53.130;17.982;2022-12-24T05:05:12;10.60;;;4.20;;
77012;SDS011;65946;53.130;17.982;2022-12-24T05:07:39;8.80;;;4.10;;
77012;SDS011;65946;53.130;17.982;2022-12-24T05:10:06;7.30;;;3.30;;
77012;SDS011;65946;53.130;17.982;2022-12-24T05:12:36;9.60;;;4.50;;
77012;SDS011;65946;53.130;17.982;2022-12-24T05:15:03;9.40;;;4.60;;
77012;SDS011;65946;53.130;17.982;2022-12-24T05:17:30;9.20;;;4.30;;
77012;SDS011;65946;53.130;17.982;2022-12-24T05:22:23;12.00;;;4.80;;
77012;SDS011;65946;53.130;17.982;2022-12-24T05:25:08;10.10;;;4.80;;
77012;SDS011;65946;53.130;17.982;2022-12-24T05:27:54;9.80;;;4.40;;
77012;SDS011;65946;53.130;17.982;2022-12-24T05:30:21;8.70;;;3.70;;
77012;SDS011;65946;53.130;17.982;2022-12-24T05:32:47;10.60;;;4.30;;
77012;SDS011;65946;53.130;17.982;2022-12-24T05:35:14;11.60;;;5.20;;
77012;SDS011;65946;53.130;17.982;2022-12-24T05:37:41;8.90;;;4.50;;
77012;SDS011;65946;53.130;17.982;2022-12-24T05:40:08;10.10;;;4.90;;
77012;SDS011;65946;53.130;17.982;2022-12-24T05:42:35;10.50;;;5.00;;
77012;SDS011;65946;53.130;17.982;2022-12-24T05:45:02;10.00;;;5.00;;
77012;SDS011;65946;53.130;17.982;2022-12-24T05:47:29;11.80;;;5.50;;
77012;SDS011;65946;53.130;17.982;2022-12-24T05:49:55;6.00;;;2.60;;
77012;SDS011;65946;53.130;17.982;2022-12-24T05:52:22;10.50;;;5.00;;
77012;SDS011;65946;53.130;17.982;2022-12-24T05:54:49;9.80;;;4.90;;
77012;SDS011;65946;53.130;17.982;2022-12-24T05:57:15;9.70;;;4.70;;
77012;SDS011;65946;53.130;17.982;2022-12-24T05:59:42;9.10;;;4.10;;
77012;SDS011;65946;53.130;17.982;2022-12-24T06:02:09;9.50;;;4.30;;
77012;SDS011;65946;53.130;17.982;2022-12-24T06:04:36;7.60;;;3.20;;
77012;SDS011;65946;53.130;17.982;2022-12-24T06:09:29;13.80;;;5.30;;
77012;SDS011;65946;53.130;17.982;2022-12-24T06:11:56;11.40;;;4.90;;
77012;SDS011;65946;53.130;17.982;2022-12-24T06:14:23;8.90;;;4.40;;
77012;SDS011;65946;53.130;17.982;2022-12-24T06:16:50;7.70;;;3.80;;
77012;SDS011;65946;53.130;17.982;2022-12-24T06:19:16;8.90;;;4.00;;
77012;SDS011;65946;53.130;17.982;2022-12-24T06:24:10;7.30;;;3.60;;
77012;SDS011;65946;53.130;17.982;2022-12-24T06:29:03;12.60;;;4.80;;
77012;SDS011;65946;53.130;17.982;2022-12-24T06:31:30;12.00;;;5.10;;
77012;SDS011;65946;53.130;17.982;2022-12-24T06:33:57;12.40;;;5.40;;
77012;SDS011;65946;53.130;17.982;2022-12-24T06:36:24;11.10;;;4.90;;
77012;SDS011;65946;53.130;17.982;2022-12-24T06:38:52;9.60;;;4.40;;
77012;SDS011;65946;53.130;17.982;2022-12-24T06:41:20;8.70;;;4.70;;
77012;SDS011;65946;53.130;17.982;2022-12-24T06:43:49;11.20;;;4.60;;
77012;SDS011;65946;53.130;17.982;2022-12-24T06:46:17;8.90;;;4.50;;
77012;SDS011;65946;53.130;17.982;2022-12-24T06:48:45;11.50;;;5.10;;
77012;SDS011;65946;53.130;17.982;2022-12-24T06:51:13;15.30;;;6.60;;
77012;SDS011;65946;53.130;17.982;2022-12-24T06:53:40;11.40;;;5.20;;
77012;SDS011;65946;53.130;17.982;2022-12-24T06:56:08;10.50;;;5.00;;
77012;SDS011;65946;53.130;17.982;2022-12-24T06:58:36;11.00;;;4.90;;
77012;SDS011;65946;53.130;17.982;2022-12-24T07:01:05;10.30;;;5.40;;
77012;SDS011;65946;53.130;17.982;2022-12-24T07:03:34;12.60;;;6.20;;
77012;SDS011;65946;53.130;17.982;2022-12-24T07:06:01;13.00;;;6.30;;
77012;SDS011;65946;53.130;17.982;2022-12-24T07:08:28;13.00;;;6.00;;
77012;SDS011;65946;53.130;17.982;2022-12-24T07:10:55;12.10;;;5.50;;
77012;SDS011;65946;53.130;17.982;2022-12-24T07:13:24;12.40;;;5.90;;
77012;SDS011;65946;53.130;17.982;2022-12-24T07:15:58;11.90;;;5.50;;
77012;SDS011;65946;53.130;17.982;2022-12-24T07:18:25;9.70;;;4.60;;
77012;SDS011;65946;53.130;17.982;2022-12-24T07:20:52;10.80;;;4.70;;
77012;SDS011;65946;53.130;17.982;2022-12-24T07:23:19;10.80;;;4.50;;
77012;SDS011;65946;53.130;17.982;2022-12-24T07:25:46;11.80;;;5.60;;
77012;SDS011;65946;53.130;17.982;2022-12-24T07:28:13;13.60;;;6.30;;
77012;SDS011;65946;53.130;17.982;2022-12-24T07:30:40;14.40;;;6.10;;
77012;SDS011;65946;53.130;17.982;2022-12-24T07:33:06;8.90;;;3.70;;
77012;SDS011;65946;53.130;17.982;2022-12-24T07:35:33;14.80;;;6.20;;
77012;SDS011;65946;53.130;17.982;2022-12-24T07:38:01;11.30;;;5.50;;
77012;SDS011;65946;53.130;17.982;2022-12-24T07:40:28;10.00;;;5.10;;
77012;SDS011;65946;53.130;17.982;2022-12-24T07:42:54;10.70;;;5.10;;
77012;SDS011;65946;53.130;17.982;2022-12-24T07:45:21;11.80;;;5.80;;
77012;SDS011;65946;53.130;17.982;2022-12-24T07:47:48;13.50;;;6.00;;
77012;SDS011;65946;53.130;17.982;2022-12-24T07:52:41;10.90;;;4.80;;
77012;SDS011;65946;53.130;17.982;2022-12-24T07:55:08;11.20;;;5.60;;
77012;SDS011;65946;53.130;17.982;2022-12-24T07:57:35;11.00;;;5.10;;
77012;SDS011;65946;53.130;17.982;2022-12-24T08:00:02;11.60;;;5.80;;
77012;SDS011;65946;53.130;17.982;2022-12-24T08:02:38;10.70;;;5.50;;
77012;SDS011;65946;53.130;17.982;2022-12-24T08:07:31;15.50;;;6.60;;
77012;SDS011;65946;53.130;17.982;2022-12-24T08:09:58;12.90;;;6.50;;
77012;SDS011;65946;53.130;17.982;2022-12-24T08:12:25;13.90;;;5.00;;
77012;SDS011;65946;53.130;17.982;2022-12-24T08:14:52;13.70;;;6.70;;
77012;SDS011;65946;53.130;17.982;2022-12-24T08:17:18;11.60;;;5.40;;
77012;SDS011;65946;53.130;17.982;2022-12-24T08:19:45;14.10;;;7.00;;
77012;SDS011;65946;53.130;17.982;2022-12-24T08:22:12;13.70;;;6.70;;
77012;SDS011;65946;53.130;17.982;2022-12-24T08:24:38;15.30;;;7.20;;
77012;SDS011;65946;53.130;17.982;2022-12-24T08:27:05;11.60;;;5.70;;
77012;SDS011;65946;53.130;17.982;2022-12-24T08:31:58;10.80;;;5.40;;
77012;SDS011;65946;53.130;17.982;2022-12-24T08:34:25;13.30;;;6.00;;
77012;SDS011;65946;53.130;17.982;2022-12-24T08:36:51;11.80;;;6.10;;
77012;SDS011;65946;53.130;17.982;2022-12-24T08:39:18;14.00;;;6.80;;
77012;SDS011;65946;53.130;17.982;2022-12-24T08:41:45;13.60;;;5.80;;
77012;SDS011;65946;53.130;17.982;2022-12-24T08:44:11;7.20;;;3.40;;
77012;SDS011;65946;53.130;17.982;2022-12-24T08:49:05;13.40;;;6.00;;
77012;SDS011;65946;53.130;17.982;2022-12-24T08:51:31;13.60;;;6.60;;
77012;SDS011;65946;53.130;17.982;2022-12-24T08:53:58;15.20;;;6.80;;
77012;SDS011;65946;53.130;17.982;2022-12-24T08:56:25;9.60;;;4.30;;
77012;SDS011;65946;53.130;17.982;2022-12-24T09:01:19;9.20;;;4.40;;
77012;SDS011;65946;53.130;17.982;2022-12-24T09:03:46;9.90;;;3.80;;
77012;SDS011;65946;53.130;17.982;2022-12-24T09:06:14;12.00;;;6.00;;
77012;SDS011;65946;53.130;17.982;2022-12-24T09:08:41;12.00;;;5.70;;
77012;SDS011;65946;53.130;17.982;2022-12-24T09:11:12;11.70;;;5.00;;
77012;SDS011;65946;53.130;17.982;2022-12-24T09:13:41;12.50;;;5.40;;
77012;SDS011;65946;53.130;17.982;2022-12-24T09:16:08;13.00;;;6.10;;
77012;SDS011;65946;53.130;17.982;2022-12-24T09:18:35;11.50;;;5.50;;
77012;SDS011;65946;53.130;17.982;2022-12-24T09:21:04;13.60;;;5.90;;
77012;SDS011;65946;53.130;17.982;2022-12-24T09:23:36;11.70;;;5.90;;
77012;SDS011;65946;53.130;17.982;2022-12-24T09:26:06;12.80;;;6.40;;
77012;SDS011;65946;53.130;17.982;2022-12-24T09:28:44;12.80;;;6.30;;
77012;SDS011;65946;53.130;17.982;2022-12-24T09:31:11;10.90;;;5.40;;
77012;SDS011;65946;53.130;17.982;2022-12-24T09:33:39;11.20;;;5.30;;
77012;SDS011;65946;53.130;17.982;2022-12-24T09:36:08;6.80;;;3.30;;
77012;SDS011;65946;53.130;17.982;2022-12-24T09:38:35;8.60;;;4.30;;
77012;SDS011;65946;53.130;17.982;2022-12-24T09:43:50;14.70;;;7.10;;
77012;SDS011;65946;53.130;17.982;2022-12-24T09:46:24;15.80;;;7.10;;
77012;SDS011;65946;53.130;17.982;2022-12-24T09:48:57;13.00;;;5.90;;
77012;SDS011;65946;53.130;17.982;2022-12-24T09:51:32;11.00;;;5.70;;
77012;SDS011;65946;53.130;17.982;2022-12-24T09:56:46;12.80;;;5.90;;
77012;SDS011;65946;53.130;17.982;2022-12-24T09:59:15;9.40;;;4.70;;
77012;SDS011;65946;53.130;17.982;2022-12-24T10:01:50;14.20;;;6.80;;
77012;SDS011;65946;53.130;17.982;2022-12-24T10:04:20;15.50;;;6.30;;
77012;SDS011;65946;53.130;17.982;2022-12-24T10:07:03;14.30;;;6.60;;
77012;SDS011;65946;53.130;17.982;2022-12-24T10:22:59;13.80;;;6.90;;
77012;SDS011;65946;53.130;17.982;2022-12-24T10:28:18;16.40;;;7.50;;
77012;SDS011;65946;53.130;17.982;2022-12-24T10:30:54;15.80;;;8.10;;
77012;SDS011;65946;53.130;17.982;2022-12-24T10:33:30;14.10;;;6.70;;
77012;SDS011;65946;53.130;17.982;2022-12-24T10:36:01;18.20;;;7.40;;
77012;SDS011;65946;53.130;17.982;2022-12-24T10:38:29;11.90;;;6.10;;
77012;SDS011;65946;53.130;17.982;2022-12-24T10:40:58;14.30;;;7.80;;
77012;SDS011;65946;53.130;17.982;2022-12-24T10:43:28;15.40;;;6.80;;
77012;SDS011;65946;53.130;17.982;2022-12-24T10:45:56;13.90;;;7.50;;
77012;SDS011;65946;53.130;17.982;2022-12-24T10:48:40;15.60;;;7.80;;
77012;SDS011;65946;53.130;17.982;2022-12-24T10:51:10;12.70;;;5.90;;
77012;SDS011;65946;53.130;17.982;2022-12-24T10:56:14;13.40;;;7.30;;
77012;SDS011;65946;53.130;17.982;2022-12-24T10:58:49;10.70;;;6.00;;
77012;SDS011;65946;53.130;17.982;2022-12-24T11:01:19;13.60;;;6.90;;
77012;SDS011;65946;53.130;17.982;2022-12-24T11:04:13;15.80;;;8.40;;
77012;SDS011;65946;53.130;17.982;2022-12-24T11:09:27;13.10;;;6.40;;
77012;SDS011;65946;53.130;17.982;2022-12-24T11:11:56;15.10;;;7.00;;
77012;SDS011;65946;53.130;17.982;2022-12-24T11:14:25;14.00;;;6.50;;
77012;SDS011;65946;53.130;17.982;2022-12-24T11:16:56;11.80;;;6.60;;
77012;SDS011;65946;53.130;17.982;2022-12-24T11:19:28;14.00;;;6.60;;
77012;SDS011;65946;53.130;17.982;2022-12-24T11:22:05;15.20;;;8.40;;
77012;SDS011;65946;53.130;17.982;2022-12-24T11:24:37;14.90;;;8.20;;
77012;SDS011;65946;53.130;17.982;2022-12-24T11:32:43;10.10;;;5.30;;
77012;SDS011;65946;53.130;17.982;2022-12-24T11:35:15;11.80;;;6.30;;
77012;SDS011;65946;53.130;17.982;2022-12-24T11:37:44;13.20;;;6.90;;
77012;SDS011;65946;53.130;17.982;2022-12-24T11:42:49;14.20;;;7.20;;
77012;SDS011;65946;53.130;17.982;2022-12-24T11:45:21;15.60;;;7.30;;
77012;SDS011;65946;53.130;17.982;2022-12-24T11:47:50;12.50;;;6.40;;
77012;SDS011;65946;53.130;17.982;2022-12-24T11:53:04;13.60;;;7.10;;
77012;SDS011;65946;53.130;17.982;2022-12-24T11:55:44;14.10;;;7.50;;
77012;SDS011;65946;53.130;17.982;2022-12-24T12:01:26;11.90;;;7.10;;
77012;SDS011;65946;53.130;17.982;2022-12-24T12:06:39;10.60;;;4.90;;
77012;SDS011;65946;53.130;17.982;2022-12-24T12:09:16;13.20;;;6.20;;
77012;SDS011;65946;53.130;17.982;2022-12-24T12:11:49;19.40;;;9.90;;
77012;SDS011;65946;53.130;17.982;2022-12-24T12:14:23;15.90;;;7.40;;
77012;SDS011;65946;53.130;17.982;2022-12-24T12:20:22;12.10;;;6.10;;
77012;SDS011;65946;53.130;17.982;2022-12-24T12:25:51;11.20;;;5.90;;
77012;SDS011;65946;53.130;17.982;2022-12-24T12:28:22;12.80;;;7.20;;
77012;SDS011;65946;53.130;17.982;2022-12-24T12:31:02;12.50;;;6.20;;
77012;SDS011;65946;53.130;17.982;2022-12-24T12:36:26;11.70;;;6.00;;
77012;SDS011;65946;53.130;17.982;2022-12-24T12:38:59;9.50;;;4.80;;
77012;SDS011;65946;53.130;17.982;2022-12-24T12:49:58;15.00;;;7.60;;
77012;SDS011;65946;53.130;17.982;2022-12-24T12:52:41;13.00;;;5.90;;
77012;SDS011;65946;53.130;17.982;2022-12-24T12:58:29;11.00;;;5.80;;
77012;SDS011;65946;53.130;17.982;2022-12-24T13:01:12;15.60;;;7.20;;
77012;SDS011;65946;53.130;17.982;2022-12-24T13:06:25;17.80;;;9.20;;
77012;SDS011;65946;53.130;17.982;2022-12-24T13:09:22;17.80;;;9.90;;
77012;SDS011;65946;53.130;17.982;2022-12-24T13:15:00;11.40;;;5.40;;
77012;SDS011;65946;53.130;17.982;2022-12-24T13:20:27;21.50;;;11.90;;
77012;SDS011;65946;53.130;17.982;2022-12-24T13:22:57;17.30;;;8.50;;
77012;SDS011;65946;53.130;17.982;2022-12-24T13:25:43;18.00;;;9.20;;
77012;SDS011;65946;53.130;17.982;2022-12-24T13:30:46;13.00;;;6.70;;
77012;SDS011;65946;53.130;17.982;2022-12-24T13:36:06;19.50;;;11.20;;
77012;SDS011;65946;53.130;17.982;2022-12-24T13:38:48;18.00;;;8.80;;
77012;SDS011;65946;53.130;17.982;2022-12-24T13:49:27;15.50;;;6.70;;
77012;SDS011;65946;53.130;17.982;2022-12-24T13:55:23;20.60;;;9.70;;
77012;SDS011;65946;53.130;17.982;2022-12-24T14:00:01;22.00;;;10.40;;
77012;SDS011;65946;53.130;17.982;2022-12-24T14:02:39;20.10;;;10.00;;
77012;SDS011;65946;53.130;17.982;2022-12-24T14:05:16;18.00;;;8.60;;
77012;SDS011;65946;53.130;17.982;2022-12-24T14:07:53;17.80;;;8.90;;
77012;SDS011;65946;53.130;17.982;2022-12-24T14:10:26;18.60;;;9.30;;
77012;SDS011;65946;53.130;17.982;2022-12-24T14:12:57;24.10;;;10.60;;
77012;SDS011;65946;53.130;17.982;2022-12-24T14:18:16;26.30;;;11.40;;
77012;SDS011;65946;53.130;17.982;2022-12-24T14:20:47;23.70;;;11.30;;
77012;SDS011;65946;53.130;17.982;2022-12-24T14:23:24;26.00;;;10.10;;
77012;SDS011;65946;53.130;17.982;2022-12-24T14:25:56;25.30;;;10.90;;
77012;SDS011;65946;53.130;17.982;2022-12-24T14:28:29;20.90;;;10.10;;
77012;SDS011;65946;53.130;17.982;2022-12-24T14:31:17;23.70;;;10.80;;
77012;SDS011;65946;53.130;17.982;2022-12-24T14:33:44;26.40;;;12.20;;
77012;SDS011;65946;53.130;17.982;2022-12-24T14:38:40;17.80;;;9.00;;
77012;SDS011;65946;53.130;17.982;2022-12-24T14:54:41;27.70;;;13.40;;
77012;SDS011;65946;53.130;17.982;2022-12-24T14:59:39;23.50;;;10.90;;
77012;SDS011;65946;53.130;17.982;2022-12-24T15:07:46;20.60;;;9.30;;
77012;SDS011;65946;53.130;17.982;2022-12-24T15:10:24;17.60;;;8.80;;
77012;SDS011;65946;53.130;17.982;2022-12-24T15:13:01;21.50;;;10.10;;
77012;SDS011;65946;53.130;17.982;2022-12-24T15:15:52;20.90;;;10.60;;
77012;SDS011;65946;53.130;17.982;2022-12-24T15:18:21;23.70;;;10.80;;
77012;SDS011;65946;53.130;17.982;2022-12-24T15:20:52;29.30;;;13.60;;
77012;SDS011;65946;53.130;17.982;2022-12-24T15:23:25;26.40;;;11.50;;
77012;SDS011;65946;53.130;17.982;2022-12-24T15:26:08;24.60;;;11.10;;
77012;SDS011;65946;53.130;17.982;2022-12-24T15:28:58;26.80;;;11.40;;
77012;SDS011;65946;53.130;17.982;2022-12-24T15:31:26;24.30;;;11.20;;
77012;SDS011;65946;53.130;17.982;2022-12-24T15:33:55;25.10;;;10.90;;
77012;SDS011;65946;53.130;17.982;2022-12-24T15:38:54;24.00;;;12.30;;
77012;SDS011;65946;53.130;17.982;2022-12-24T15:41:24;23.00;;;10.50;;
77012;SDS011;65946;53.130;17.982;2022-12-24T15:43:53;23.00;;;9.90;;
77012;SDS011;65946;53.130;17.982;2022-12-24T15:48:55;21.70;;;9.50;;
77012;SDS011;65946;53.130;17.982;2022-12-24T15:51:31;23.70;;;11.30;;
77012;SDS011;65946;53.130;17.982;2022-12-24T15:54:04;24.80;;;10.30;;
77012;SDS011;65946;53.130;17.982;2022-12-24T15:56:37;25.10;;;11.00;;
77012;SDS011;65946;53.130;17.982;2022-12-24T15:59:18;25.80;;;11.50;;
77012;SDS011;65946;53.130;17.982;2022-12-24T16:01:49;24.00;;;11.20;;
77012;SDS011;65946;53.130;17.982;2022-12-24T16:04:21;25.90;;;9.20;;
77012;SDS011;65946;53.130;17.982;2022-12-24T16:06:57;25.20;;;12.20;;
77012;SDS011;65946;53.130;17.982;2022-12-24T16:12:02;23.20;;;10.50;;
77012;SDS011;65946;53.130;17.982;2022-12-24T16:14:31;27.30;;;12.40;;
77012;SDS011;65946;53.130;17.982;2022-12-24T16:16:59;23.20;;;9.90;;
77012;SDS011;65946;53.130;17.982;2022-12-24T16:19:26;25.20;;;10.70;;
77012;SDS011;65946;53.130;17.982;2022-12-24T16:21:57;22.40;;;9.90;;
77012;SDS011;65946;53.130;17.982;2022-12-24T16:24:46;24.70;;;10.80;;
77012;SDS011;65946;53.130;17.982;2022-12-24T16:27:13;20.60;;;9.50;;
77012;SDS011;65946;53.130;17.982;2022-12-24T16:29:40;23.60;;;10.70;;
77012;SDS011;65946;53.130;17.982;2022-12-24T16:32:15;28.40;;;12.10;;
77012;SDS011;65946;53.130;17.982;2022-12-24T16:35:01;28.60;;;12.50;;
77012;SDS011;65946;53.130;17.982;2022-12-24T16:37:30;27.30;;;12.80;;
77012;SDS011;65946;53.130;17.982;2022-12-24T16:39:57;23.40;;;10.40;;
77012;SDS011;65946;53.130;17.982;2022-12-24T16:42:24;19.40;;;9.30;;
77012;SDS011;65946;53.130;17.982;2022-12-24T16:45:10;22.10;;;10.00;;
77012;SDS011;65946;53.130;17.982;2022-12-24T16:50:04;27.00;;;11.80;;
77012;SDS011;65946;53.130;17.982;2022-12-24T16:52:32;26.50;;;11.80;;
77012;SDS011;65946;53.130;17.982;2022-12-24T16:54:59;23.80;;;10.60;;
77012;SDS011;65946;53.130;17.982;2022-12-24T16:57:26;26.90;;;12.40;;
77012;SDS011;65946;53.130;17.982;2022-12-24T16:59:53;31.80;;;12.90;;
77012;SDS011;65946;53.130;17.982;2022-12-24T17:02:21;23.10;;;10.30;;
77012;SDS011;65946;53.130;17.982;2022-12-24T17:04:50;31.20;;;12.30;;
77012;SDS011;65946;53.130;17.982;2022-12-24T17:07:18;24.80;;;12.20;;
77012;SDS011;65946;53.130;17.982;2022-12-24T17:09:46;28.70;;;12.30;;
77012;SDS011;65946;53.130;17.982;2022-12-24T17:12:12;24.00;;;11.10;;
77012;SDS011;65946;53.130;17.982;2022-12-24T17:14:40;25.10;;;13.00;;
77012;SDS011;65946;53.130;17.982;2022-12-24T17:17:27;28.70;;;13.90;;
77012;SDS011;65946;53.130;17.982;2022-12-24T17:19:55;34.30;;;16.30;;
77012;SDS011;65946;53.130;17.982;2022-12-24T17:22:22;35.00;;;17.50;;
77012;SDS011;65946;53.130;17.982;2022-12-24T17:24:50;51.40;;;23.30;;
77012;SDS011;65946;53.130;17.982;2022-12-24T17:27:17;33.30;;;16.00;;
77012;SDS011;65946;53.130;17.982;2022-12-24T17:29:43;30.00;;;13.70;;
77012;SDS011;65946;53.130;17.982;2022-12-24T17:32:11;38.70;;;17.60;;
77012;SDS011;65946;53.130;17.982;2022-12-24T17:37:04;32.30;;;14.10;;
77012;SDS011;65946;53.130;17.982;2022-12-24T17:39:31;42.00;;;21.40;;
77012;SDS011;65946;53.130;17.982;2022-12-24T17:41:58;26.60;;;13.20;;
77012;SDS011;65946;53.130;17.982;2022-12-24T17:44:24;28.40;;;13.20;;
77012;SDS011;65946;53.130;17.982;2022-12-24T17:46:51;25.00;;;11.60;;
77012;SDS011;65946;53.130;17.982;2022-12-24T17:49:18;27.50;;;12.90;;
77012;SDS011;65946;53.130;17.982;2022-12-24T17:51:44;34.40;;;15.20;;